createdAt,value
2022-09-30T00:01:17.750Z,96078.06
2022-09-30T00:03:48.252Z,96082.63
2022-09-30T00:06:16.880Z,96080.28
2022-09-30T00:08:44.947Z,96084.06
2022-09-30T00:11:16.390Z,96087.84
2022-09-30T00:13:45.830Z,96088.50
2022-09-30T00:16:15.754Z,96091.66
2022-09-30T00:18:44.660Z,96089.59
2022-09-30T00:21:13.684Z,96096.69
2022-09-30T00:23:41.708Z,96097.66
2022-09-30T00:26:13.034Z,96099.69
2022-09-30T00:28:43.891Z,96102.38
2022-09-30T00:31:14.873Z,96097.50
2022-09-30T00:33:43.328Z,96100.19
2022-09-30T00:36:12.142Z,96093.22
2022-09-30T00:38:40.114Z,96094.81
2022-09-30T00:41:08.157Z,96090.22
2022-09-30T00:43:43.312Z,96098.59
2022-09-30T00:46:18.557Z,96098.28
2022-09-30T00:48:47.503Z,96097.00
2022-09-30T00:51:15.460Z,96099.25
2022-09-30T00:54:10.340Z,96103.03
2022-09-30T00:56:40.986Z,96104.63
2022-09-30T00:59:13.505Z,96096.06
2022-09-30T01:01:42.622Z,96104.63
2022-09-30T01:04:13.232Z,96109.97
2022-09-30T01:06:41.505Z,96107.28
2022-09-30T01:09:09.968Z,96111.88
2022-09-30T01:11:38.116Z,96117.56
2022-09-30T01:14:07.787Z,96123.72
2022-09-30T01:16:55.696Z,96126.09
2022-09-30T01:19:48.848Z,96121.81
2022-09-30T01:22:23.353Z,96130.34
2022-09-30T01:25:33.897Z,96125.13
2022-09-30T01:28:15.009Z,96137.75
2022-09-30T01:30:56.764Z,96133.97
2022-09-30T01:33:34.943Z,96133.97
2022-09-30T01:36:28.623Z,96133.66
2022-09-30T01:39:05.788Z,96125.59
2022-09-30T01:41:42.317Z,96125.59
2022-09-30T01:44:15.640Z,96137.44
2022-09-30T01:46:47.708Z,96144.41
2022-09-30T01:49:22.284Z,96144.41
2022-09-30T01:51:57.066Z,96139.03
2022-09-30T01:54:28.900Z,96146.59
2022-09-30T01:57:00.232Z,96146.59
2022-09-30T01:59:32.750Z,96155.13
2022-09-30T02:02:08.305Z,96161.59
2022-09-30T02:04:40.389Z,96158.13
2022-09-30T02:07:12.284Z,96159.41
2022-09-30T02:09:42.757Z,96156.72
2022-09-30T02:12:15.116Z,96155.63
2022-09-30T02:14:45.725Z,96160.50
2022-09-30T02:17:24.544Z,96152.94
2022-09-30T02:19:55.832Z,96155.63
2022-09-30T02:22:27.200Z,96159.09
2022-09-30T02:24:59.051Z,96157.03
2022-09-30T02:27:30.421Z,96158.13
2022-09-30T02:30:00.869Z,96158.78
2022-09-30T02:32:32.964Z,96158.75
2022-09-30T02:35:05.315Z,96157.78
2022-09-30T02:37:35.877Z,96157.97
2022-09-30T02:40:08.101Z,96157.34
2022-09-30T02:42:36.132Z,96159.56
2022-09-30T02:45:08.685Z,96164.28
2022-09-30T02:47:47.280Z,96164.28
2022-09-30T02:50:19.718Z,96162.06
2022-09-30T02:52:54.713Z,96157.97
2022-09-30T02:55:29.430Z,96164.94
2022-09-30T02:58:01.401Z,96162.25
2022-09-30T03:00:30.281Z,96160.81
2022-09-30T03:03:01.137Z,96158.13
2022-09-30T03:05:29.394Z,96158.91
2022-09-30T03:07:57.770Z,96162.41
2022-09-30T03:10:26.079Z,96150.88
2022-09-30T03:13:07.231Z,96157.03
2022-09-30T03:15:43.168Z,96151.97
2022-09-30T03:18:24.733Z,96158.13
2022-09-30T03:21:01.878Z,96154.66
2022-09-30T03:23:43.931Z,96152.59
2022-09-30T03:26:19.321Z,96156.41
2022-09-30T03:28:54.343Z,96158.28
2022-09-30T03:31:27.486Z,96168.22
2022-09-30T03:34:01.424Z,96178.66
2022-09-30T03:36:35.440Z,96178.31
2022-09-30T03:39:09.289Z,96191.44
2022-09-30T03:41:41.412Z,96183.09
2022-09-30T03:44:12.981Z,96190.81
2022-09-30T03:46:43.862Z,96188.13
2022-09-30T03:49:15.688Z,96199.34
2022-09-30T03:51:43.814Z,96200.94
2022-09-30T03:54:13.653Z,96199.34
2022-09-30T03:56:43.312Z,96200.75
2022-09-30T03:59:13.516Z,96209.13
2022-09-30T04:01:41.616Z,96199.00
2022-09-30T04:04:09.877Z,96208.34
2022-09-30T04:06:39.260Z,96213.75
2022-09-30T04:09:07.306Z,96217.13
2022-09-30T04:11:35.405Z,96216.97
2022-09-30T04:14:03.798Z,96221.13
2022-09-30T04:16:32.089Z,96224.28
2022-09-30T04:19:00.384Z,96218.91
2022-09-30T04:21:29.079Z,96220.50
2022-09-30T04:23:58.519Z,96225.84
2022-09-30T04:26:26.548Z,96230.44
2022-09-30T04:28:58.145Z,96228.06
2022-09-30T04:31:26.519Z,96233.91
2022-09-30T04:33:57.006Z,96232.81
2022-09-30T04:36:25.087Z,96231.84
2022-09-30T04:38:53.574Z,96235.13
2022-09-30T04:41:23.205Z,96237.22
2022-09-30T04:43:51.215Z,96239.41
2022-09-30T04:46:20.969Z,96252.16
2022-09-30T04:48:48.997Z,96246.88
2022-09-30T04:51:18.850Z,96253.97
2022-09-30T04:53:47.757Z,96259.00
2022-09-30T04:56:16.759Z,96258.84
2022-09-30T04:58:46.854Z,96259.84
2022-09-30T05:01:16.251Z,96256.53
2022-09-30T05:03:44.828Z,96264.75
2022-09-30T05:06:13.212Z,96260.31
2022-09-30T05:08:45.692Z,96271.53
2022-09-30T05:11:16.573Z,96262.38
2022-09-30T05:13:46.474Z,96267.13
2022-09-30T05:16:15.922Z,96274.06
2022-09-30T05:18:46.228Z,96276.28
2022-09-30T05:21:15.349Z,96276.91
2022-09-30T05:23:43.541Z,96276.41
2022-09-30T05:26:12.784Z,96272.13
2022-09-30T05:28:41.183Z,96274.81
2022-09-30T05:31:12.329Z,96279.09
2022-09-30T05:33:41.811Z,96275.31
2022-09-30T05:36:13.602Z,96281.63
2022-09-30T05:38:41.838Z,96286.69
2022-09-30T05:41:11.474Z,96295.53
2022-09-30T05:43:40.417Z,96297.75
2022-09-30T05:46:10.196Z,96313.38
2022-09-30T05:48:38.198Z,96310.06
2022-09-30T05:51:07.531Z,96309.28
2022-09-30T05:53:38.682Z,96304.53
2022-09-30T05:56:07.423Z,96318.88
2022-09-30T05:58:35.582Z,96318.88
2022-09-30T06:01:12.917Z,96321.84
2022-09-30T06:03:42.968Z,96316.66
2022-09-30T06:06:11.483Z,96328.97
2022-09-30T06:08:40.333Z,96327.25
2022-09-30T06:11:12.762Z,96328.97
2022-09-30T06:13:41.523Z,96310.69
2022-09-30T06:16:10.447Z,96319.41
2022-09-30T06:18:41.131Z,96315.28
2022-09-30T06:21:12.538Z,96321.16
2022-09-30T06:24:09.389Z,96329.69
2022-09-30T06:26:37.375Z,96327.31
2022-09-30T06:29:05.404Z,96332.84
2022-09-30T06:31:33.507Z,96336.84
2022-09-30T06:34:02.346Z,96331.66
2022-09-30T06:36:33.391Z,96345.56
2022-09-30T06:39:01.960Z,96353.13
2022-09-30T06:41:30.059Z,96356.69
2022-09-30T06:44:02.526Z,96356.44
2022-09-30T06:46:32.215Z,96358.72
2022-09-30T06:49:11.264Z,96367.88
2022-09-30T06:51:42.043Z,96371.84
2022-09-30T06:54:10.334Z,96365.28
2022-09-30T06:56:38.341Z,96376.97
2022-09-30T06:59:07.108Z,96378.75
2022-09-30T07:01:35.209Z,96378.13
2022-09-30T07:04:09.335Z,96377.50
2022-09-30T07:06:38.869Z,96384.97
2022-09-30T07:09:09.247Z,96391.56
2022-09-30T07:11:38.312Z,96389.84
2022-09-30T07:14:06.525Z,96377.84
2022-09-30T07:16:34.977Z,96388.47
2022-09-30T07:19:03.317Z,96392.75
2022-09-30T07:21:32.405Z,96391.81
2022-09-30T07:24:01.120Z,96390.09
2022-09-30T07:26:31.114Z,96389.16
2022-09-30T07:29:00.099Z,96394.41
2022-09-30T07:31:32.904Z,96393.75
2022-09-30T07:34:02.036Z,96391.56
2022-09-30T07:36:33.635Z,96391.06
2022-09-30T07:39:05.848Z,96402.47
2022-09-30T07:41:38.130Z,96404.22
2022-09-30T07:44:06.802Z,96404.97
2022-09-30T07:46:38.708Z,96403.91
2022-09-30T07:49:09.037Z,96411.81
2022-09-30T07:51:38.881Z,96408.19
2022-09-30T07:54:08.813Z,96417.19
2022-09-30T07:59:28.193Z,96426.22
2022-09-30T08:01:56.435Z,96428.91
2022-09-30T08:04:25.989Z,96429.19
2022-09-30T08:06:55.911Z,96424.81
2022-09-30T08:09:26.962Z,96425.16
2022-09-30T08:11:57.125Z,96434.66
2022-09-30T08:14:26.415Z,96430.56
2022-09-30T08:16:55.862Z,96421.88
2022-09-30T08:19:25.354Z,96425.53
2022-09-30T08:21:54.287Z,96415.25
2022-09-30T08:24:23.192Z,96421.88
2022-09-30T08:26:51.378Z,96423.13
2022-09-30T08:29:35.773Z,96433.94
2022-09-30T08:32:09.039Z,96430.00
2022-09-30T08:34:37.186Z,96436.97
2022-09-30T08:37:09.219Z,96444.38
2022-09-30T08:39:37.883Z,96438.69
2022-09-30T08:42:35.977Z,96441.69
2022-09-30T08:45:13.401Z,96444.22
2022-09-30T08:47:45.227Z,96441.69
2022-09-30T08:50:17.816Z,96450.09
2022-09-30T08:52:49.583Z,96452.19
2022-09-30T08:55:23.338Z,96453.13
2022-09-30T08:57:52.004Z,96464.03
2022-09-30T09:00:22.524Z,96461.84
2022-09-30T09:02:53.776Z,96473.41
2022-09-30T09:05:32.075Z,96477.03
2022-09-30T09:08:04.127Z,96472.28
2022-09-30T09:10:39.197Z,96473.91
2022-09-30T09:13:14.417Z,96478.03
2022-09-30T09:15:51.985Z,96485.34
2022-09-30T09:18:29.988Z,96486.44
2022-09-30T09:21:00.401Z,96490.28
2022-09-30T09:23:31.264Z,96487.56
2022-09-30T09:26:00.136Z,96484.09
2022-09-30T09:28:36.961Z,96482.53
2022-09-30T09:31:06.987Z,96486.31
2022-09-30T09:33:37.406Z,96492.81
2022-09-30T09:36:12.883Z,96494.41
2022-09-30T09:38:52.118Z,96496.16
2022-09-30T09:41:27.146Z,96493.91
2022-09-30T09:44:00.476Z,96501.97
2022-09-30T09:46:32.214Z,96517.66
2022-09-30T09:49:30.122Z,96517.03
2022-09-30T09:52:31.336Z,96516.06
2022-09-30T09:55:00.883Z,96505.91
2022-09-30T09:57:32.475Z,96504.16
2022-09-30T10:00:22.526Z,96507.63
2022-09-30T10:03:03.853Z,96515.28
2022-09-30T10:05:39.411Z,96517.63
2022-09-30T10:08:13.274Z,96507.31
2022-09-30T10:10:49.642Z,96512.06
2022-09-30T10:13:19.352Z,96514.25
2022-09-30T10:15:47.908Z,96517.88
2022-09-30T10:18:22.663Z,96519.97
2022-09-30T10:20:53.602Z,96512.63
2022-09-30T10:23:23.524Z,96517.63
2022-09-30T10:25:59.969Z,96509.84
2022-09-30T10:28:30.189Z,96519.47
2022-09-30T10:31:08.907Z,96517.34
2022-09-30T10:33:44.997Z,96516.13
2022-09-30T10:36:16.406Z,96508.94
2022-09-30T10:38:50.658Z,96499.38
2022-09-30T10:41:24.292Z,96502.03
2022-09-30T10:43:54.293Z,96503.78
2022-09-30T10:46:27.259Z,96503.91
2022-09-30T10:48:58.934Z,96507.25
2022-09-30T10:51:34.015Z,96514.25
2022-09-30T10:54:02.413Z,96517.84
2022-09-30T10:56:44.627Z,96514.47
2022-09-30T10:59:24.134Z,96525.03
2022-09-30T11:01:57.607Z,96535.25
2022-09-30T11:04:33.619Z,96524.53
2022-09-30T11:07:11.379Z,96511.63
2022-09-30T11:09:45.917Z,96510.44
2022-09-30T11:12:20.303Z,96494.63
2022-09-30T11:14:54.720Z,96497.50
2022-09-30T11:17:33.669Z,96507.94
2022-09-30T11:20:12.909Z,96510.03
2022-09-30T11:22:47.008Z,96508.03
2022-09-30T11:25:16.149Z,96501.34
2022-09-30T11:27:59.481Z,96504.97
2022-09-30T11:30:32.551Z,96521.63
2022-09-30T11:33:15.873Z,96517.94
2022-09-30T11:35:52.810Z,96527.72
2022-09-30T11:38:32.195Z,96530.53
2022-09-30T11:41:06.386Z,96535.22
2022-09-30T11:43:41.528Z,96534.56
2022-09-30T11:46:30.678Z,96525.97
2022-09-30T11:49:14.385Z,96527.84
2022-09-30T11:51:49.649Z,96536.41
2022-09-30T11:54:28.562Z,96529.63
2022-09-30T11:57:02.012Z,96523.31
2022-09-30T11:59:35.266Z,96522.25
2022-09-30T12:02:05.431Z,96519.09
2022-09-30T12:04:37.054Z,96529.91
2022-09-30T12:07:12.583Z,96515.06
2022-09-30T12:09:44.269Z,96513.25
2022-09-30T12:12:16.710Z,96497.66
2022-09-30T12:14:47.936Z,96522.25
2022-09-30T12:17:21.473Z,96519.56
2022-09-30T12:19:52.067Z,96519.56
2022-09-30T12:22:26.137Z,96528.59
2022-09-30T12:24:54.164Z,96525.03
2022-09-30T12:27:25.782Z,96524.56
2022-09-30T12:30:17.182Z,96524.91
2022-09-30T12:33:16.522Z,96525.59
2022-09-30T12:36:10.976Z,96522.59
2022-09-30T12:38:54.841Z,96522.75
2022-09-30T12:41:35.376Z,96525.06
2022-09-30T12:44:29.628Z,96520.06
2022-09-30T12:47:11.649Z,96518.94
2022-09-30T12:49:41.179Z,96520.31
2022-09-30T12:52:14.592Z,96523.03
2022-09-30T12:54:48.854Z,96512.19
2022-09-30T12:57:20.780Z,96513.09
2022-09-30T12:59:52.643Z,96520.44
2022-09-30T13:02:30.250Z,96521.66
2022-09-30T13:05:44.704Z,96523.81
2022-09-30T13:08:25.950Z,96506.53
2022-09-30T13:10:59.211Z,96511.31
2022-09-30T13:13:30.586Z,96512.63
2022-09-30T13:16:03.292Z,96519.50
2022-09-30T13:18:59.755Z,96526.75
2022-09-30T13:21:27.753Z,96534.56
2022-09-30T13:23:56.954Z,96536.13
2022-09-30T13:26:38.597Z,96526.38
2022-09-30T13:29:29.994Z,96534.06
2022-09-30T13:32:05.599Z,96538.13
2022-09-30T13:34:36.464Z,96523.44
2022-09-30T13:37:05.706Z,96523.44
2022-09-30T13:39:45.612Z,96533.50
2022-09-30T13:42:22.121Z,96533.38
2022-09-30T13:45:00.839Z,96536.75
2022-09-30T13:47:31.669Z,96547.47
2022-09-30T13:50:03.232Z,96545.97
2022-09-30T13:52:34.223Z,96540.13
2022-09-30T13:55:07.932Z,96535.28
2022-09-30T13:57:43.645Z,96527.16
2022-09-30T14:00:15.186Z,96525.69
2022-09-30T14:03:08.598Z,96527.47
2022-09-30T14:05:54.095Z,96517.91
2022-09-30T14:08:56.486Z,96520.72
2022-09-30T14:11:41.191Z,96527.47
2022-09-30T14:14:26.943Z,96524.06
2022-09-30T14:17:30.114Z,96528.53
2022-09-30T14:20:12.215Z,96522.25
2022-09-30T14:22:41.910Z,96515.38
2022-09-30T14:25:14.827Z,96507.41
2022-09-30T14:28:04.408Z,96514.50
2022-09-30T14:30:39.565Z,96519.56
2022-09-30T14:33:11.657Z,96524.72
2022-09-30T14:35:41.584Z,96529.09
2022-09-30T14:38:15.784Z,96533.56
2022-09-30T14:40:51.022Z,96530.28
2022-09-30T14:43:44.708Z,96522.66
2022-09-30T14:46:27.793Z,96527.13
2022-09-30T14:48:58.958Z,96531.16
2022-09-30T14:51:27.471Z,96539.63
2022-09-30T14:53:56.936Z,96549.44
2022-09-30T14:56:30.810Z,96547.50
2022-09-30T14:59:00.934Z,96551.81
2022-09-30T15:01:34.546Z,96559.47
2022-09-30T15:04:04.730Z,96558.34
2022-09-30T15:06:35.290Z,96557.69
2022-09-30T15:09:06.482Z,96558.34
2022-09-30T15:11:39.512Z,96557.22
2022-09-30T15:14:10.220Z,96551.22
2022-09-30T15:17:05.154Z,96557.91
2022-09-30T15:19:35.338Z,96570.75
2022-09-30T15:22:05.234Z,96566.94
2022-09-30T15:24:33.905Z,96574.81
2022-09-30T15:27:02.859Z,96574.03
2022-09-30T15:29:31.035Z,96582.63
2022-09-30T15:32:03.155Z,96573.38
2022-09-30T15:34:31.775Z,96571.91
2022-09-30T15:37:06.358Z,96571.56
2022-09-30T15:39:54.470Z,96562.66
2022-09-30T15:42:36.181Z,96561.63
2022-09-30T15:45:06.443Z,96563.50
2022-09-30T15:47:54.496Z,96568.72
2022-09-30T15:50:37.582Z,96569.16
2022-09-30T15:53:06.219Z,96570.25
2022-09-30T15:55:43.153Z,96573.88
2022-09-30T15:58:33.724Z,96578.81
2022-09-30T16:01:26.834Z,96575.16
2022-09-30T16:04:44.704Z,96581.38
2022-09-30T16:07:18.025Z,96582.16
2022-09-30T16:09:48.870Z,96585.97
2022-09-30T16:12:19.661Z,96593.19
2022-09-30T16:14:50.033Z,96588.75
2022-09-30T16:17:19.982Z,96598.78
2022-09-30T16:19:52.126Z,96605.66
2022-09-30T16:22:52.485Z,96601.25
2022-09-30T16:25:23.441Z,96604.59
2022-09-30T16:27:57.783Z,96610.78
2022-09-30T16:30:26.287Z,96613.38
2022-09-30T16:32:58.177Z,96625.16
2022-09-30T16:35:28.164Z,96623.59
2022-09-30T16:38:02.413Z,96626.94
2022-09-30T16:40:32.467Z,96624.13
2022-09-30T16:43:03.252Z,96625.56
2022-09-30T16:45:33.886Z,96623.16
2022-09-30T16:48:02.991Z,96621.56
2022-09-30T16:50:35.007Z,96616.81
2022-09-30T16:53:04.410Z,96621.44
2022-09-30T16:55:32.870Z,96624.44
2022-09-30T16:58:00.939Z,96628.16
2022-09-30T17:00:29.944Z,96628.03
2022-09-30T17:02:58.096Z,96634.06
2022-09-30T17:05:27.619Z,96642.50
2022-09-30T17:07:57.071Z,96636.97
2022-09-30T17:10:29.113Z,96645.72
2022-09-30T17:12:57.578Z,96640.50
2022-09-30T17:15:25.667Z,96647.81
2022-09-30T17:17:54.041Z,96640.34
2022-09-30T17:20:23.285Z,96640.22
2022-09-30T17:22:51.807Z,96651.03
2022-09-30T17:25:20.163Z,96642.47
2022-09-30T17:27:51.061Z,96641.97
2022-09-30T17:30:19.625Z,96649.63
2022-09-30T17:32:47.982Z,96661.56
2022-09-30T17:35:16.780Z,96655.19
2022-09-30T17:37:46.534Z,96657.44
2022-09-30T17:40:32.882Z,96651.88
2022-09-30T17:43:14.160Z,96664.78
2022-09-30T17:45:44.499Z,96650.34
2022-09-30T17:48:13.530Z,96654.34
2022-09-30T17:50:44.264Z,96662.31
2022-09-30T17:53:14.186Z,96661.03
2022-09-30T17:55:42.278Z,96665.94
2022-09-30T17:58:12.387Z,96662.78
2022-09-30T18:00:40.460Z,96666.91
2022-09-30T18:03:08.846Z,96662.97
2022-09-30T18:05:37.206Z,96667.41
2022-09-30T18:08:05.642Z,96665.81
2022-09-30T18:10:33.737Z,96669.19
2022-09-30T18:13:01.704Z,96666.34
2022-09-30T18:15:31.185Z,96671.25
2022-09-30T18:17:59.200Z,96671.44
2022-09-30T18:20:27.213Z,96665.56
2022-09-30T18:22:55.213Z,96660.16
2022-09-30T18:25:23.825Z,96665.41
2022-09-30T18:27:53.631Z,96670.00
2022-09-30T18:30:21.788Z,96674.16
2022-09-30T18:32:52.701Z,96674.00
2022-09-30T18:35:22.742Z,96680.47
2022-09-30T18:37:51.552Z,96677.31
2022-09-30T18:40:21.581Z,96687.91
2022-09-30T18:42:49.966Z,96694.75
2022-09-30T18:45:18.548Z,96688.41
2022-09-30T18:47:46.589Z,96686.84
2022-09-30T18:50:17.988Z,96694.44
2022-09-30T18:52:46.078Z,96692.84
2022-09-30T18:55:14.152Z,96688.09
2022-09-30T18:57:42.236Z,96680.63
2022-09-30T19:00:11.436Z,96677.47
2022-09-30T19:02:40.762Z,96689.38
2022-09-30T19:05:09.396Z,96684.13
2022-09-30T19:07:39.492Z,96682.56
2022-09-30T19:10:09.165Z,96680.47
2022-09-30T19:12:38.758Z,96674.28
2022-09-30T19:15:08.991Z,96670.78
2022-09-30T19:17:37.530Z,96673.03
2022-09-30T19:20:06.905Z,96674.94
2022-09-30T19:22:37.258Z,96675.88
2022-09-30T19:25:07.878Z,96675.41
2022-09-30T19:27:37.720Z,96681.25
2022-09-30T19:30:06.820Z,96679.97
2022-09-30T19:32:35.109Z,96679.19
2022-09-30T19:35:06.458Z,96678.53
2022-09-30T19:37:35.386Z,96683.31
2022-09-30T19:40:19.030Z,96681.13
2022-09-30T19:42:49.644Z,96686.97
2022-09-30T19:45:22.794Z,96688.06
2022-09-30T19:47:52.590Z,96684.72
2022-09-30T19:50:20.616Z,96681.72
2022-09-30T19:52:57.080Z,96680.13
2022-09-30T19:55:27.597Z,96674.75
2022-09-30T19:57:55.739Z,96674.75
2022-09-30T20:00:24.154Z,96670.47
2022-09-30T20:02:52.663Z,96673.16
2022-09-30T20:05:21.562Z,96670.16
2022-09-30T20:07:51.250Z,96676.81
2022-09-30T20:10:19.785Z,96673.31
2022-09-30T20:12:49.143Z,96669.03
2022-09-30T20:15:35.007Z,96666.66
2022-09-30T20:18:03.020Z,96666.94
2022-09-30T20:20:37.281Z,96671.53
2022-09-30T20:23:05.476Z,96673.44
2022-09-30T20:25:35.295Z,96657.91
2022-09-30T20:28:05.483Z,96656.03
2022-09-30T20:30:34.070Z,96647.63
2022-09-30T20:33:02.505Z,96636.84
2022-09-30T20:35:30.546Z,96640.00
2022-09-30T20:37:58.730Z,96646.19
2022-09-30T20:40:26.910Z,96651.59
2022-09-30T20:43:01.449Z,96650.78
2022-09-30T20:45:31.496Z,96656.75
2022-09-30T20:47:59.624Z,96656.13
2022-09-30T20:50:36.419Z,96670.25
2022-09-30T20:53:06.428Z,96662.66
2022-09-30T20:55:35.982Z,96660.47
2022-09-30T20:58:04.235Z,96662.03
2022-09-30T21:00:34.488Z,96673.44
2022-09-30T21:03:02.529Z,96681.03
2022-09-30T21:05:31.943Z,96689.25
2022-09-30T21:08:00.578Z,96682.28
2022-09-30T21:10:29.743Z,96692.44
2022-09-30T21:12:59.037Z,96686.41
2022-09-30T21:15:27.754Z,96688.00
2022-09-30T21:17:57.278Z,96690.41
2022-09-30T21:20:25.544Z,96682.63
2022-09-30T21:22:53.847Z,96688.00
2022-09-30T21:25:21.996Z,96678.81
2022-09-30T21:27:50.126Z,96688.78
2022-09-30T21:30:19.263Z,96689.75
2022-09-30T21:32:48.825Z,96687.50
2022-09-30T21:35:18.352Z,96691.00
2022-09-30T21:37:49.594Z,96690.69
2022-09-30T21:40:18.996Z,96690.22
2022-09-30T21:42:46.958Z,96679.44
2022-09-30T21:45:15.089Z,96675.63
2022-09-30T21:47:43.082Z,96670.25
2022-09-30T21:50:11.239Z,96677.22
2022-09-30T21:52:40.599Z,96677.22
2022-09-30T21:55:11.826Z,96676.44
2022-09-30T21:57:40.112Z,96675.63
2022-09-30T22:00:09.045Z,96679.91
2022-09-30T22:02:41.943Z,96691.00
2022-09-30T22:05:10.325Z,96696.53
2022-09-30T22:07:38.834Z,96691.31
2022-09-30T22:10:09.607Z,96688.78
2022-09-30T22:12:38.234Z,96689.25
2022-09-30T22:15:07.147Z,96695.13
2022-09-30T22:17:35.185Z,96694.03
2022-09-30T22:20:03.256Z,96696.72
2022-09-30T22:22:31.273Z,96703.22
2022-09-30T22:24:59.273Z,96706.69
2022-09-30T22:27:28.700Z,96704.81
2022-09-30T22:29:56.661Z,96703.22
2022-09-30T22:32:24.816Z,96712.09
2022-09-30T22:35:10.439Z,96707.50
2022-09-30T22:38:01.177Z,96708.59
2022-09-30T22:40:29.221Z,96711.75
2022-09-30T22:42:58.530Z,96716.38
2022-09-30T22:45:26.529Z,96711.00
2022-09-30T22:47:56.804Z,96712.41
2022-09-30T22:50:26.072Z,96711.28
2022-09-30T22:52:54.042Z,96708.59
2022-09-30T22:55:22.255Z,96707.31
2022-09-30T22:57:50.213Z,96700.94
2022-09-30T23:00:19.568Z,96700.47
2022-09-30T23:02:48.326Z,96704.75
2022-09-30T23:05:16.583Z,96709.84
2022-09-30T23:07:44.599Z,96720.63
2022-09-30T23:10:12.684Z,96731.38
2022-09-30T23:12:41.006Z,96736.91
2022-09-30T23:15:09.586Z,96740.53
2022-09-30T23:17:39.005Z,96752.44
2022-09-30T23:20:08.565Z,96751.44
2022-09-30T23:22:36.526Z,96758.72
2022-09-30T23:25:04.817Z,96759.06
2022-09-30T23:27:58.277Z,96768.03
2022-09-30T23:30:26.832Z,96770.25
2022-09-30T23:32:56.257Z,96770.84
2022-09-30T23:35:24.248Z,96771.50
2022-09-30T23:37:52.951Z,96774.47
2022-09-30T23:40:20.963Z,96779.06
2022-09-30T23:42:50.413Z,96778.28
2022-09-30T23:45:18.368Z,96781.59
2022-09-30T23:47:48.363Z,96784.28
2022-09-30T23:50:17.815Z,96789.97
2022-09-30T23:52:45.769Z,96791.88
2022-09-30T23:55:16.839Z,96789.47
2022-09-30T23:57:46.866Z,96787.88
